sensor_id;sensor_type;location;lat;lon;timestamp;P1;durP1;ratioP1;P2;durP2;ratioP2
19828;SDS011;10075;50.924;4.396;2022-09-09T00:00:18;4.55;;;2.30;;
19828;SDS011;10075;50.924;4.396;2022-09-09T00:02:49;6.72;;;2.63;;
19828;SDS011;10075;50.924;4.396;2022-09-09T00:05:26;7.20;;;2.72;;
19828;SDS011;10075;50.924;4.396;2022-09-09T00:07:59;7.80;;;2.28;;
19828;SDS011;10075;50.924;4.396;2022-09-09T00:10:30;10.32;;;2.20;;
19828;SDS011;10075;50.924;4.396;2022-09-09T00:13:05;7.22;;;1.95;;
19828;SDS011;10075;50.924;4.396;2022-09-09T00:15:43;8.73;;;2.13;;
19828;SDS011;10075;50.924;4.396;2022-09-09T00:18:18;7.07;;;2.30;;
19828;SDS011;10075;50.924;4.396;2022-09-09T00:20:52;8.13;;;2.08;;
19828;SDS011;10075;50.924;4.396;2022-09-09T00:23:24;7.97;;;2.15;;
19828;SDS011;10075;50.924;4.396;2022-09-09T00:25:56;10.60;;;1.88;;
19828;SDS011;10075;50.924;4.396;2022-09-09T00:28:30;7.28;;;2.40;;
19828;SDS011;10075;50.924;4.396;2022-09-09T00:31:04;9.13;;;2.72;;
19828;SDS011;10075;50.924;4.396;2022-09-09T00:33:38;6.80;;;2.40;;
19828;SDS011;10075;50.924;4.396;2022-09-09T00:36:09;8.15;;;2.05;;
19828;SDS011;10075;50.924;4.396;2022-09-09T00:38:42;6.97;;;2.10;;
19828;SDS011;10075;50.924;4.396;2022-09-09T00:41:14;8.63;;;2.30;;
19828;SDS011;10075;50.924;4.396;2022-09-09T00:43:52;6.65;;;2.13;;
19828;SDS011;10075;50.924;4.396;2022-09-09T00:46:40;7.18;;;2.22;;
19828;SDS011;10075;50.924;4.396;2022-09-09T00:49:19;6.38;;;2.58;;
19828;SDS011;10075;50.924;4.396;2022-09-09T00:52:01;6.10;;;2.20;;
19828;SDS011;10075;50.924;4.396;2022-09-09T00:54:40;9.95;;;2.92;;
19828;SDS011;10075;50.924;4.396;2022-09-09T00:57:18;9.50;;;2.40;;
19828;SDS011;10075;50.924;4.396;2022-09-09T00:59:52;6.28;;;2.10;;
19828;SDS011;10075;50.924;4.396;2022-09-09T01:02:26;7.65;;;2.63;;
19828;SDS011;10075;50.924;4.396;2022-09-09T01:04:56;7.78;;;2.45;;
19828;SDS011;10075;50.924;4.396;2022-09-09T01:07:27;4.82;;;2.28;;
19828;SDS011;10075;50.924;4.396;2022-09-09T01:09:55;10.50;;;2.63;;
19828;SDS011;10075;50.924;4.396;2022-09-09T01:12:25;8.95;;;2.15;;
19828;SDS011;10075;50.924;4.396;2022-09-09T01:15:03;11.27;;;2.97;;
19828;SDS011;10075;50.924;4.396;2022-09-09T01:17:38;5.18;;;2.47;;
19828;SDS011;10075;50.924;4.396;2022-09-09T01:20:17;8.00;;;2.22;;
19828;SDS011;10075;50.924;4.396;2022-09-09T01:22:53;7.55;;;1.98;;
19828;SDS011;10075;50.924;4.396;2022-09-09T01:28:39;10.48;;;2.25;;
19828;SDS011;10075;50.924;4.396;2022-09-09T01:31:09;7.78;;;2.08;;
19828;SDS011;10075;50.924;4.396;2022-09-09T01:33:40;8.07;;;2.17;;
19828;SDS011;10075;50.924;4.396;2022-09-09T01:36:08;7.97;;;2.28;;
19828;SDS011;10075;50.924;4.396;2022-09-09T01:38:38;8.02;;;3.00;;
19828;SDS011;10075;50.924;4.396;2022-09-09T01:41:06;9.27;;;3.20;;
19828;SDS011;10075;50.924;4.396;2022-09-09T01:43:33;9.65;;;2.70;;
19828;SDS011;10075;50.924;4.396;2022-09-09T01:46:01;9.75;;;2.70;;
19828;SDS011;10075;50.924;4.396;2022-09-09T01:48:28;9.20;;;2.40;;
19828;SDS011;10075;50.924;4.396;2022-09-09T01:50:56;6.05;;;2.53;;
19828;SDS011;10075;50.924;4.396;2022-09-09T01:53:23;10.32;;;3.10;;
19828;SDS011;10075;50.924;4.396;2022-09-09T01:55:53;7.10;;;2.58;;
19828;SDS011;10075;50.924;4.396;2022-09-09T01:58:28;13.32;;;3.08;;
19828;SDS011;10075;50.924;4.396;2022-09-09T02:01:02;7.60;;;2.63;;
19828;SDS011;10075;50.924;4.396;2022-09-09T02:03:36;8.48;;;2.50;;
19828;SDS011;10075;50.924;4.396;2022-09-09T02:06:05;12.57;;;2.80;;
19828;SDS011;10075;50.924;4.396;2022-09-09T02:08:45;13.98;;;2.85;;
19828;SDS011;10075;50.924;4.396;2022-09-09T02:11:15;14.50;;;2.83;;
19828;SDS011;10075;50.924;4.396;2022-09-09T02:13:44;8.02;;;2.45;;
19828;SDS011;10075;50.924;4.396;2022-09-09T02:16:15;12.77;;;3.40;;
19828;SDS011;10075;50.924;4.396;2022-09-09T02:18:48;10.27;;;2.70;;
19828;SDS011;10075;50.924;4.396;2022-09-09T02:21:17;10.48;;;2.92;;
19828;SDS011;10075;50.924;4.396;2022-09-09T02:23:46;11.85;;;3.03;;
19828;SDS011;10075;50.924;4.396;2022-09-09T02:26:17;10.57;;;3.08;;
19828;SDS011;10075;50.924;4.396;2022-09-09T02:28:49;13.60;;;2.97;;
19828;SDS011;10075;50.924;4.396;2022-09-09T02:31:22;8.93;;;2.65;;
19828;SDS011;10075;50.924;4.396;2022-09-09T02:33:51;9.45;;;2.58;;
19828;SDS011;10075;50.924;4.396;2022-09-09T02:36:23;12.00;;;3.20;;
19828;SDS011;10075;50.924;4.396;2022-09-09T02:38:52;11.55;;;2.83;;
19828;SDS011;10075;50.924;4.396;2022-09-09T02:41:20;16.50;;;3.42;;
19828;SDS011;10075;50.924;4.396;2022-09-09T02:43:50;11.45;;;3.20;;
19828;SDS011;10075;50.924;4.396;2022-09-09T02:46:27;10.73;;;3.08;;
19828;SDS011;10075;50.924;4.396;2022-09-09T02:49:04;14.50;;;3.10;;
19828;SDS011;10075;50.924;4.396;2022-09-09T02:51:35;14.30;;;3.08;;
19828;SDS011;10075;50.924;4.396;2022-09-09T02:54:15;11.25;;;3.17;;
19828;SDS011;10075;50.924;4.396;2022-09-09T02:56:48;10.98;;;2.72;;
19828;SDS011;10075;50.924;4.396;2022-09-09T02:59:19;11.32;;;2.97;;
19828;SDS011;10075;50.924;4.396;2022-09-09T03:01:48;11.77;;;3.13;;
19828;SDS011;10075;50.924;4.396;2022-09-09T03:04:15;16.88;;;3.30;;
19828;SDS011;10075;50.924;4.396;2022-09-09T03:06:43;14.65;;;3.53;;
19828;SDS011;10075;50.924;4.396;2022-09-09T03:09:10;18.27;;;3.63;;
19828;SDS011;10075;50.924;4.396;2022-09-09T03:11:37;13.15;;;3.20;;
19828;SDS011;10075;50.924;4.396;2022-09-09T03:14:04;9.90;;;2.97;;
19828;SDS011;10075;50.924;4.396;2022-09-09T03:16:31;13.75;;;2.50;;
19828;SDS011;10075;50.924;4.396;2022-09-09T03:19:00;8.23;;;2.60;;
19828;SDS011;10075;50.924;4.396;2022-09-09T03:21:28;11.18;;;2.40;;
19828;SDS011;10075;50.924;4.396;2022-09-09T03:23:55;15.52;;;2.97;;
19828;SDS011;10075;50.924;4.396;2022-09-09T03:26:22;11.25;;;2.80;;
19828;SDS011;10075;50.924;4.396;2022-09-09T03:28:49;10.07;;;2.90;;
19828;SDS011;10075;50.924;4.396;2022-09-09T03:31:17;12.27;;;2.78;;
19828;SDS011;10075;50.924;4.396;2022-09-09T03:33:44;14.18;;;2.83;;
19828;SDS011;10075;50.924;4.396;2022-09-09T03:36:13;10.85;;;2.58;;
19828;SDS011;10075;50.924;4.396;2022-09-09T03:38:40;11.10;;;2.75;;
19828;SDS011;10075;50.924;4.396;2022-09-09T03:41:07;9.35;;;3.00;;
19828;SDS011;10075;50.924;4.396;2022-09-09T03:43:34;9.80;;;2.83;;
19828;SDS011;10075;50.924;4.396;2022-09-09T03:46:02;12.15;;;2.88;;
19828;SDS011;10075;50.924;4.396;2022-09-09T03:48:32;17.15;;;3.47;;
19828;SDS011;10075;50.924;4.396;2022-09-09T03:50:59;10.50;;;2.72;;
19828;SDS011;10075;50.924;4.396;2022-09-09T03:53:29;11.48;;;2.67;;
19828;SDS011;10075;50.924;4.396;2022-09-09T03:55:57;9.95;;;2.83;;
19828;SDS011;10075;50.924;4.396;2022-09-09T03:58:26;13.45;;;3.35;;
19828;SDS011;10075;50.924;4.396;2022-09-09T04:00:54;14.25;;;3.10;;
19828;SDS011;10075;50.924;4.396;2022-09-09T04:03:21;13.45;;;3.03;;
19828;SDS011;10075;50.924;4.396;2022-09-09T04:05:49;9.07;;;2.72;;
19828;SDS011;10075;50.924;4.396;2022-09-09T04:08:17;9.15;;;3.03;;
19828;SDS011;10075;50.924;4.396;2022-09-09T04:10:46;11.73;;;2.75;;
19828;SDS011;10075;50.924;4.396;2022-09-09T04:13:13;13.77;;;2.80;;
19828;SDS011;10075;50.924;4.396;2022-09-09T04:15:41;7.93;;;2.72;;
19828;SDS011;10075;50.924;4.396;2022-09-09T04:18:08;15.85;;;2.65;;
19828;SDS011;10075;50.924;4.396;2022-09-09T04:20:36;10.30;;;2.28;;
19828;SDS011;10075;50.924;4.396;2022-09-09T04:23:04;17.65;;;3.00;;
19828;SDS011;10075;50.924;4.396;2022-09-09T04:25:31;8.52;;;3.03;;
19828;SDS011;10075;50.924;4.396;2022-09-09T04:28:00;17.83;;;2.75;;
19828;SDS011;10075;50.924;4.396;2022-09-09T04:30:28;19.65;;;3.35;;
19828;SDS011;10075;50.924;4.396;2022-09-09T04:32:56;11.60;;;2.80;;
19828;SDS011;10075;50.924;4.396;2022-09-09T04:35:23;9.23;;;2.85;;
19828;SDS011;10075;50.924;4.396;2022-09-09T04:37:52;9.45;;;2.40;;
19828;SDS011;10075;50.924;4.396;2022-09-09T04:40:19;11.20;;;2.88;;
19828;SDS011;10075;50.924;4.396;2022-09-09T04:42:47;12.77;;;2.80;;
19828;SDS011;10075;50.924;4.396;2022-09-09T04:45:16;13.63;;;2.90;;
19828;SDS011;10075;50.924;4.396;2022-09-09T04:47:44;17.40;;;3.05;;
19828;SDS011;10075;50.924;4.396;2022-09-09T04:50:11;14.57;;;3.42;;
19828;SDS011;10075;50.924;4.396;2022-09-09T04:52:38;12.88;;;3.55;;
19828;SDS011;10075;50.924;4.396;2022-09-09T04:55:06;12.45;;;3.47;;
19828;SDS011;10075;50.924;4.396;2022-09-09T04:57:34;12.27;;;2.80;;
19828;SDS011;10075;50.924;4.396;2022-09-09T05:00:02;9.70;;;2.97;;
19828;SDS011;10075;50.924;4.396;2022-09-09T05:02:31;15.75;;;3.38;;
19828;SDS011;10075;50.924;4.396;2022-09-09T05:04:58;13.57;;;3.13;;
19828;SDS011;10075;50.924;4.396;2022-09-09T05:07:26;13.30;;;3.90;;
19828;SDS011;10075;50.924;4.396;2022-09-09T05:09:54;12.05;;;3.13;;
19828;SDS011;10075;50.924;4.396;2022-09-09T05:12:21;13.73;;;3.50;;
19828;SDS011;10075;50.924;4.396;2022-09-09T05:14:50;11.50;;;3.30;;
19828;SDS011;10075;50.924;4.396;2022-09-09T05:17:17;15.48;;;4.03;;
19828;SDS011;10075;50.924;4.396;2022-09-09T05:19:46;17.80;;;4.18;;
19828;SDS011;10075;50.924;4.396;2022-09-09T05:22:13;12.48;;;3.50;;
19828;SDS011;10075;50.924;4.396;2022-09-09T05:24:44;10.75;;;3.25;;
19828;SDS011;10075;50.924;4.396;2022-09-09T05:27:11;13.13;;;3.22;;
19828;SDS011;10075;50.924;4.396;2022-09-09T05:29:38;14.77;;;3.65;;
19828;SDS011;10075;50.924;4.396;2022-09-09T05:32:06;14.00;;;4.00;;
19828;SDS011;10075;50.924;4.396;2022-09-09T05:34:35;12.35;;;3.30;;
19828;SDS011;10075;50.924;4.396;2022-09-09T05:37:04;12.88;;;3.53;;
19828;SDS011;10075;50.924;4.396;2022-09-09T05:39:31;12.10;;;3.63;;
19828;SDS011;10075;50.924;4.396;2022-09-09T05:41:59;9.88;;;3.22;;
19828;SDS011;10075;50.924;4.396;2022-09-09T05:44:26;13.35;;;2.97;;
19828;SDS011;10075;50.924;4.396;2022-09-09T05:46:54;13.80;;;3.17;;
19828;SDS011;10075;50.924;4.396;2022-09-09T05:49:22;13.20;;;3.22;;
19828;SDS011;10075;50.924;4.396;2022-09-09T05:51:49;14.35;;;3.17;;
19828;SDS011;10075;50.924;4.396;2022-09-09T05:54:17;16.65;;;3.25;;
19828;SDS011;10075;50.924;4.396;2022-09-09T05:56:44;13.43;;;3.13;;
19828;SDS011;10075;50.924;4.396;2022-09-09T05:59:11;10.38;;;2.80;;
19828;SDS011;10075;50.924;4.396;2022-09-09T06:01:39;16.20;;;3.00;;
19828;SDS011;10075;50.924;4.396;2022-09-09T06:04:07;14.50;;;2.92;;
19828;SDS011;10075;50.924;4.396;2022-09-09T06:06:35;11.25;;;2.88;;
19828;SDS011;10075;50.924;4.396;2022-09-09T06:09:05;11.07;;;2.92;;
19828;SDS011;10075;50.924;4.396;2022-09-09T06:11:36;14.93;;;3.10;;
19828;SDS011;10075;50.924;4.396;2022-09-09T06:14:04;11.85;;;2.78;;
19828;SDS011;10075;50.924;4.396;2022-09-09T06:16:32;11.07;;;2.95;;
19828;SDS011;10075;50.924;4.396;2022-09-09T06:18:59;17.67;;;3.40;;
19828;SDS011;10075;50.924;4.396;2022-09-09T06:21:28;11.50;;;3.42;;
19828;SDS011;10075;50.924;4.396;2022-09-09T06:23:56;15.43;;;3.50;;
19828;SDS011;10075;50.924;4.396;2022-09-09T06:26:23;12.18;;;2.55;;
19828;SDS011;10075;50.924;4.396;2022-09-09T06:28:54;10.98;;;2.28;;
19828;SDS011;10075;50.924;4.396;2022-09-09T06:31:23;13.45;;;2.35;;
19828;SDS011;10075;50.924;4.396;2022-09-09T06:33:53;7.03;;;2.75;;
19828;SDS011;10075;50.924;4.396;2022-09-09T06:36:21;13.00;;;2.75;;
19828;SDS011;10075;50.924;4.396;2022-09-09T06:38:49;12.70;;;2.80;;
19828;SDS011;10075;50.924;4.396;2022-09-09T06:41:17;10.88;;;2.80;;
19828;SDS011;10075;50.924;4.396;2022-09-09T06:43:45;9.48;;;2.30;;
19828;SDS011;10075;50.924;4.396;2022-09-09T06:46:14;13.57;;;2.60;;
19828;SDS011;10075;50.924;4.396;2022-09-09T06:48:43;10.07;;;2.80;;
19828;SDS011;10075;50.924;4.396;2022-09-09T06:51:12;12.90;;;2.67;;
19828;SDS011;10075;50.924;4.396;2022-09-09T06:53:40;9.45;;;2.65;;
19828;SDS011;10075;50.924;4.396;2022-09-09T06:56:19;11.35;;;2.85;;
19828;SDS011;10075;50.924;4.396;2022-09-09T06:58:48;16.30;;;3.13;;
19828;SDS011;10075;50.924;4.396;2022-09-09T07:01:18;8.15;;;2.78;;
19828;SDS011;10075;50.924;4.396;2022-09-09T07:03:47;10.20;;;2.22;;
19828;SDS011;10075;50.924;4.396;2022-09-09T07:06:16;7.75;;;2.20;;
19828;SDS011;10075;50.924;4.396;2022-09-09T07:08:48;9.32;;;2.22;;
19828;SDS011;10075;50.924;4.396;2022-09-09T07:11:16;10.63;;;2.60;;
19828;SDS011;10075;50.924;4.396;2022-09-09T07:13:44;8.70;;;2.03;;
19828;SDS011;10075;50.924;4.396;2022-09-09T07:16:12;9.80;;;2.58;;
19828;SDS011;10075;50.924;4.396;2022-09-09T07:18:41;7.78;;;1.90;;
19828;SDS011;10075;50.924;4.396;2022-09-09T07:21:09;11.20;;;2.22;;
19828;SDS011;10075;50.924;4.396;2022-09-09T07:23:37;8.32;;;1.67;;
19828;SDS011;10075;50.924;4.396;2022-09-09T07:26:07;10.15;;;2.40;;
19828;SDS011;10075;50.924;4.396;2022-09-09T07:28:36;8.20;;;1.90;;
19828;SDS011;10075;50.924;4.396;2022-09-09T07:31:04;8.40;;;1.80;;
19828;SDS011;10075;50.924;4.396;2022-09-09T07:33:32;7.53;;;1.77;;
19828;SDS011;10075;50.924;4.396;2022-09-09T07:36:04;11.85;;;2.55;;
19828;SDS011;10075;50.924;4.396;2022-09-09T07:38:37;6.60;;;1.60;;
19828;SDS011;10075;50.924;4.396;2022-09-09T07:41:06;13.25;;;2.72;;
19828;SDS011;10075;50.924;4.396;2022-09-09T07:43:36;8.43;;;2.38;;
19828;SDS011;10075;50.924;4.396;2022-09-09T07:46:04;9.63;;;1.92;;
19828;SDS011;10075;50.924;4.396;2022-09-09T07:48:31;10.57;;;2.28;;
19828;SDS011;10075;50.924;4.396;2022-09-09T07:51:10;6.60;;;1.65;;
19828;SDS011;10075;50.924;4.396;2022-09-09T07:53:41;5.60;;;1.60;;
19828;SDS011;10075;50.924;4.396;2022-09-09T07:56:10;9.18;;;1.98;;
19828;SDS011;10075;50.924;4.396;2022-09-09T07:58:39;6.95;;;1.80;;
19828;SDS011;10075;50.924;4.396;2022-09-09T08:01:07;6.00;;;2.60;;
19828;SDS011;10075;50.924;4.396;2022-09-09T08:03:37;9.73;;;1.98;;
19828;SDS011;10075;50.924;4.396;2022-09-09T08:06:04;6.13;;;1.98;;
19828;SDS011;10075;50.924;4.396;2022-09-09T08:08:35;6.35;;;1.48;;
19828;SDS011;10075;50.924;4.396;2022-09-09T08:11:04;6.88;;;1.70;;
19828;SDS011;10075;50.924;4.396;2022-09-09T08:13:34;11.45;;;2.40;;
19828;SDS011;10075;50.924;4.396;2022-09-09T08:16:08;9.85;;;2.25;;
19828;SDS011;10075;50.924;4.396;2022-09-09T08:18:36;11.00;;;2.03;;
19828;SDS011;10075;50.924;4.396;2022-09-09T08:21:04;11.77;;;1.90;;
19828;SDS011;10075;50.924;4.396;2022-09-09T08:23:38;11.20;;;2.40;;
19828;SDS011;10075;50.924;4.396;2022-09-09T08:26:07;7.90;;;2.42;;
19828;SDS011;10075;50.924;4.396;2022-09-09T08:28:37;7.65;;;1.83;;
19828;SDS011;10075;50.924;4.396;2022-09-09T08:31:05;10.68;;;1.98;;
19828;SDS011;10075;50.924;4.396;2022-09-09T08:33:35;10.50;;;2.17;;
19828;SDS011;10075;50.924;4.396;2022-09-09T08:36:03;11.32;;;2.05;;
19828;SDS011;10075;50.924;4.396;2022-09-09T08:38:31;8.00;;;1.90;;
19828;SDS011;10075;50.924;4.396;2022-09-09T08:41:03;11.10;;;1.88;;
19828;SDS011;10075;50.924;4.396;2022-09-09T08:43:42;10.88;;;2.22;;
19828;SDS011;10075;50.924;4.396;2022-09-09T08:46:13;5.68;;;1.77;;
19828;SDS011;10075;50.924;4.396;2022-09-09T08:48:50;7.50;;;2.03;;
19828;SDS011;10075;50.924;4.396;2022-09-09T08:51:23;12.15;;;2.55;;
19828;SDS011;10075;50.924;4.396;2022-09-09T08:53:53;6.45;;;2.00;;
19828;SDS011;10075;50.924;4.396;2022-09-09T08:56:25;9.30;;;2.10;;
19828;SDS011;10075;50.924;4.396;2022-09-09T08:58:57;6.55;;;2.08;;
19828;SDS011;10075;50.924;4.396;2022-09-09T09:01:41;8.82;;;2.15;;
19828;SDS011;10075;50.924;4.396;2022-09-09T09:04:34;12.27;;;2.40;;
19828;SDS011;10075;50.924;4.396;2022-09-09T09:07:16;9.10;;;1.90;;
19828;SDS011;10075;50.924;4.396;2022-09-09T09:09:54;9.32;;;2.65;;
19828;SDS011;10075;50.924;4.396;2022-09-09T09:12:30;8.63;;;2.60;;
19828;SDS011;10075;50.924;4.396;2022-09-09T09:15:01;9.32;;;2.47;;
19828;SDS011;10075;50.924;4.396;2022-09-09T09:17:35;8.95;;;2.20;;
19828;SDS011;10075;50.924;4.396;2022-09-09T09:20:05;10.35;;;2.15;;
19828;SDS011;10075;50.924;4.396;2022-09-09T09:22:39;8.75;;;2.28;;
19828;SDS011;10075;50.924;4.396;2022-09-09T09:25:15;9.10;;;1.90;;
19828;SDS011;10075;50.924;4.396;2022-09-09T09:27:46;8.27;;;1.95;;
19828;SDS011;10075;50.924;4.396;2022-09-09T09:30:21;10.23;;;2.25;;
19828;SDS011;10075;50.924;4.396;2022-09-09T09:32:51;10.75;;;2.35;;
19828;SDS011;10075;50.924;4.396;2022-09-09T09:35:21;8.65;;;2.35;;
19828;SDS011;10075;50.924;4.396;2022-09-09T09:37:49;9.88;;;2.38;;
19828;SDS011;10075;50.924;4.396;2022-09-09T09:40:17;7.18;;;2.10;;
19828;SDS011;10075;50.924;4.396;2022-09-09T09:42:49;9.23;;;2.28;;
19828;SDS011;10075;50.924;4.396;2022-09-09T09:45:23;8.50;;;2.15;;
19828;SDS011;10075;50.924;4.396;2022-09-09T09:48:01;8.70;;;2.20;;
19828;SDS011;10075;50.924;4.396;2022-09-09T09:50:30;8.77;;;2.03;;
19828;SDS011;10075;50.924;4.396;2022-09-09T09:53:00;9.75;;;2.08;;
19828;SDS011;10075;50.924;4.396;2022-09-09T09:55:31;8.25;;;2.03;;
19828;SDS011;10075;50.924;4.396;2022-09-09T09:58:02;8.23;;;2.25;;
19828;SDS011;10075;50.924;4.396;2022-09-09T10:00:30;6.57;;;1.88;;
19828;SDS011;10075;50.924;4.396;2022-09-09T10:03:00;7.10;;;1.77;;
19828;SDS011;10075;50.924;4.396;2022-09-09T10:05:28;7.60;;;1.85;;
19828;SDS011;10075;50.924;4.396;2022-09-09T10:08:00;10.18;;;2.20;;
19828;SDS011;10075;50.924;4.396;2022-09-09T10:10:34;6.63;;;2.13;;
19828;SDS011;10075;50.924;4.396;2022-09-09T10:13:19;8.68;;;2.20;;
19828;SDS011;10075;50.924;4.396;2022-09-09T10:15:54;9.82;;;1.52;;
19828;SDS011;10075;50.924;4.396;2022-09-09T10:18:34;8.38;;;2.10;;
19828;SDS011;10075;50.924;4.396;2022-09-09T10:21:09;8.20;;;1.75;;
19828;SDS011;10075;50.924;4.396;2022-09-09T10:23:50;10.48;;;1.75;;
19828;SDS011;10075;50.924;4.396;2022-09-09T10:26:32;7.38;;;1.88;;
19828;SDS011;10075;50.924;4.396;2022-09-09T10:29:22;5.72;;;1.40;;
19828;SDS011;10075;50.924;4.396;2022-09-09T10:32:28;6.93;;;1.67;;
19828;SDS011;10075;50.924;4.396;2022-09-09T10:35:02;6.25;;;2.08;;
19828;SDS011;10075;50.924;4.396;2022-09-09T10:37:49;9.93;;;1.40;;
19828;SDS011;10075;50.924;4.396;2022-09-09T10:40:27;6.00;;;1.73;;
19828;SDS011;10075;50.924;4.396;2022-09-09T10:43:01;5.88;;;1.65;;
19828;SDS011;10075;50.924;4.396;2022-09-09T10:45:40;11.95;;;1.60;;
19828;SDS011;10075;50.924;4.396;2022-09-09T10:48:17;3.90;;;1.33;;
19828;SDS011;10075;50.924;4.396;2022-09-09T10:50:59;9.40;;;1.70;;
19828;SDS011;10075;50.924;4.396;2022-09-09T10:53:37;7.45;;;1.45;;
19828;SDS011;10075;50.924;4.396;2022-09-09T10:56:17;5.80;;;1.27;;
19828;SDS011;10075;50.924;4.396;2022-09-09T10:58:47;7.07;;;1.80;;
19828;SDS011;10075;50.924;4.396;2022-09-09T11:01:20;7.80;;;1.50;;
19828;SDS011;10075;50.924;4.396;2022-09-09T11:03:52;8.52;;;2.15;;
19828;SDS011;10075;50.924;4.396;2022-09-09T11:06:23;6.53;;;1.40;;
19828;SDS011;10075;50.924;4.396;2022-09-09T11:08:59;6.22;;;1.15;;
19828;SDS011;10075;50.924;4.396;2022-09-09T11:11:29;8.40;;;1.67;;
19828;SDS011;10075;50.924;4.396;2022-09-09T11:14:03;6.13;;;1.45;;
19828;SDS011;10075;50.924;4.396;2022-09-09T11:16:39;4.65;;;1.33;;
19828;SDS011;10075;50.924;4.396;2022-09-09T11:19:11;7.60;;;1.83;;
19828;SDS011;10075;50.924;4.396;2022-09-09T11:21:46;4.82;;;1.33;;
19828;SDS011;10075;50.924;4.396;2022-09-09T11:24:18;4.78;;;1.50;;
19828;SDS011;10075;50.924;4.396;2022-09-09T11:26:49;5.90;;;1.25;;
19828;SDS011;10075;50.924;4.396;2022-09-09T11:29:33;5.10;;;1.30;;
19828;SDS011;10075;50.924;4.396;2022-09-09T11:32:34;4.72;;;1.13;;
19828;SDS011;10075;50.924;4.396;2022-09-09T11:35:27;5.63;;;1.33;;
19828;SDS011;10075;50.924;4.396;2022-09-09T11:38:05;6.20;;;1.25;;
19828;SDS011;10075;50.924;4.396;2022-09-09T11:40:56;7.65;;;1.50;;
19828;SDS011;10075;50.924;4.396;2022-09-09T11:43:27;4.13;;;1.20;;
19828;SDS011;10075;50.924;4.396;2022-09-09T11:45:58;5.05;;;1.20;;
19828;SDS011;10075;50.924;4.396;2022-09-09T11:51:38;7.57;;;1.73;;
19828;SDS011;10075;50.924;4.396;2022-09-09T11:56:54;4.75;;;1.20;;
19828;SDS011;10075;50.924;4.396;2022-09-09T11:59:22;9.32;;;1.60;;
19828;SDS011;10075;50.924;4.396;2022-09-09T12:01:54;4.97;;;1.20;;
19828;SDS011;10075;50.924;4.396;2022-09-09T12:04:34;6.00;;;1.27;;
19828;SDS011;10075;50.924;4.396;2022-09-09T12:07:21;5.22;;;1.50;;
19828;SDS011;10075;50.924;4.396;2022-09-09T12:09:55;7.70;;;1.92;;
19828;SDS011;10075;50.924;4.396;2022-09-09T12:12:25;5.18;;;1.25;;
19828;SDS011;10075;50.924;4.396;2022-09-09T12:15:17;4.57;;;1.30;;
19828;SDS011;10075;50.924;4.396;2022-09-09T12:17:46;5.07;;;1.42;;
19828;SDS011;10075;50.924;4.396;2022-09-09T12:20:17;7.18;;;1.30;;
19828;SDS011;10075;50.924;4.396;2022-09-09T12:22:54;3.25;;;1.15;;
19828;SDS011;10075;50.924;4.396;2022-09-09T12:28:46;3.70;;;1.27;;
19828;SDS011;10075;50.924;4.396;2022-09-09T12:31:21;5.70;;;1.50;;
19828;SDS011;10075;50.924;4.396;2022-09-09T12:33:52;5.53;;;1.38;;
19828;SDS011;10075;50.924;4.396;2022-09-09T12:36:20;5.00;;;1.33;;
19828;SDS011;10075;50.924;4.396;2022-09-09T12:38:51;4.97;;;1.35;;
19828;SDS011;10075;50.924;4.396;2022-09-09T12:41:20;5.70;;;1.20;;
19828;SDS011;10075;50.924;4.396;2022-09-09T12:43:48;4.93;;;1.40;;
19828;SDS011;10075;50.924;4.396;2022-09-09T12:46:22;5.05;;;1.30;;
19828;SDS011;10075;50.924;4.396;2022-09-09T12:48:57;4.78;;;1.27;;
19828;SDS011;10075;50.924;4.396;2022-09-09T12:51:25;4.05;;;1.00;;
19828;SDS011;10075;50.924;4.396;2022-09-09T12:53:56;2.28;;;0.90;;
19828;SDS011;10075;50.924;4.396;2022-09-09T12:56:24;4.72;;;1.48;;
19828;SDS011;10075;50.924;4.396;2022-09-09T12:58:54;4.20;;;1.08;;
19828;SDS011;10075;50.924;4.396;2022-09-09T13:01:24;4.32;;;1.05;;
19828;SDS011;10075;50.924;4.396;2022-09-09T13:03:53;3.42;;;1.30;;
19828;SDS011;10075;50.924;4.396;2022-09-09T13:06:21;4.85;;;1.30;;
19828;SDS011;10075;50.924;4.396;2022-09-09T13:08:49;3.08;;;1.25;;
19828;SDS011;10075;50.924;4.396;2022-09-09T13:11:19;4.32;;;1.27;;
19828;SDS011;10075;50.924;4.396;2022-09-09T13:13:50;3.38;;;1.20;;
19828;SDS011;10075;50.924;4.396;2022-09-09T13:16:20;3.15;;;0.90;;
19828;SDS011;10075;50.924;4.396;2022-09-09T13:18:51;6.65;;;1.30;;
19828;SDS011;10075;50.924;4.396;2022-09-09T13:21:18;4.15;;;1.15;;
19828;SDS011;10075;50.924;4.396;2022-09-09T13:23:48;6.15;;;1.70;;
19828;SDS011;10075;50.924;4.396;2022-09-09T13:26:22;3.97;;;1.13;;
19828;SDS011;10075;50.924;4.396;2022-09-09T13:28:51;3.90;;;1.17;;
19828;SDS011;10075;50.924;4.396;2022-09-09T13:31:20;4.53;;;1.13;;
19828;SDS011;10075;50.924;4.396;2022-09-09T13:33:49;6.20;;;1.40;;
19828;SDS011;10075;50.924;4.396;2022-09-09T13:36:26;5.63;;;1.20;;
19828;SDS011;10075;50.924;4.396;2022-09-09T13:38:56;6.22;;;1.30;;
19828;SDS011;10075;50.924;4.396;2022-09-09T13:41:28;3.35;;;1.10;;
19828;SDS011;10075;50.924;4.396;2022-09-09T13:43:58;4.00;;;1.20;;
19828;SDS011;10075;50.924;4.396;2022-09-09T13:46:32;3.00;;;0.98;;
19828;SDS011;10075;50.924;4.396;2022-09-09T13:49:01;4.15;;;1.02;;
19828;SDS011;10075;50.924;4.396;2022-09-09T13:51:45;3.40;;;1.15;;
19828;SDS011;10075;50.924;4.396;2022-09-09T13:54:16;6.28;;;1.30;;
19828;SDS011;10075;50.924;4.396;2022-09-09T13:56:45;2.90;;;0.82;;
19828;SDS011;10075;50.924;4.396;2022-09-09T13:59:15;4.20;;;1.20;;
19828;SDS011;10075;50.924;4.396;2022-09-09T14:01:44;5.20;;;1.30;;
19828;SDS011;10075;50.924;4.396;2022-09-09T14:04:12;3.63;;;1.10;;
19828;SDS011;10075;50.924;4.396;2022-09-09T14:06:40;5.60;;;1.35;;
19828;SDS011;10075;50.924;4.396;2022-09-09T14:09:10;4.65;;;1.10;;
19828;SDS011;10075;50.924;4.396;2022-09-09T14:11:38;2.95;;;0.90;;
19828;SDS011;10075;50.924;4.396;2022-09-09T14:14:07;3.40;;;1.00;;
19828;SDS011;10075;50.924;4.396;2022-09-09T14:16:34;3.97;;;0.82;;
19828;SDS011;10075;50.924;4.396;2022-09-09T14:19:01;3.03;;;0.95;;
19828;SDS011;10075;50.924;4.396;2022-09-09T14:21:28;4.00;;;1.13;;
19828;SDS011;10075;50.924;4.396;2022-09-09T14:23:55;2.15;;;0.70;;
19828;SDS011;10075;50.924;4.396;2022-09-09T14:26:24;6.20;;;1.23;;
19828;SDS011;10075;50.924;4.396;2022-09-09T14:28:51;4.28;;;1.08;;
19828;SDS011;10075;50.924;4.396;2022-09-09T14:31:19;4.15;;;1.50;;
19828;SDS011;10075;50.924;4.396;2022-09-09T14:33:46;3.30;;;1.10;;
19828;SDS011;10075;50.924;4.396;2022-09-09T14:36:13;5.15;;;0.80;;
19828;SDS011;10075;50.924;4.396;2022-09-09T14:38:41;2.10;;;1.00;;
19828;SDS011;10075;50.924;4.396;2022-09-09T14:41:13;2.53;;;1.02;;
19828;SDS011;10075;50.924;4.396;2022-09-09T14:43:43;4.68;;;1.33;;
19828;SDS011;10075;50.924;4.396;2022-09-09T14:46:11;3.33;;;1.23;;
19828;SDS011;10075;50.924;4.396;2022-09-09T14:48:41;4.13;;;1.50;;
19828;SDS011;10075;50.924;4.396;2022-09-09T14:51:09;4.43;;;1.10;;
19828;SDS011;10075;50.924;4.396;2022-09-09T14:53:37;4.18;;;1.30;;
19828;SDS011;10075;50.924;4.396;2022-09-09T14:56:06;5.78;;;1.30;;
19828;SDS011;10075;50.924;4.396;2022-09-09T14:58:34;2.72;;;0.82;;
19828;SDS011;10075;50.924;4.396;2022-09-09T15:01:02;5.63;;;1.65;;
19828;SDS011;10075;50.924;4.396;2022-09-09T15:03:30;3.95;;;1.00;;
19828;SDS011;10075;50.924;4.396;2022-09-09T15:05:58;3.97;;;1.00;;
19828;SDS011;10075;50.924;4.396;2022-09-09T15:08:31;4.20;;;1.00;;
19828;SDS011;10075;50.924;4.396;2022-09-09T15:10:58;5.00;;;1.00;;
19828;SDS011;10075;50.924;4.396;2022-09-09T15:13:27;4.13;;;1.20;;
19828;SDS011;10075;50.924;4.396;2022-09-09T15:15:54;4.28;;;1.10;;
19828;SDS011;10075;50.924;4.396;2022-09-09T15:18:21;4.10;;;1.23;;